sensor_id;sensor_type;location;lat;lon;timestamp;P1;durP1;ratioP1;P2;durP2;ratioP2
20593;SDS011;10455;48.732;10.266;2022-11-09T00:04:04;22.37;;;18.73;;
20593;SDS011;10455;48.732;10.266;2022-11-09T00:09:07;13.53;;;11.77;;
20593;SDS011;10455;48.732;10.266;2022-11-09T00:14:12;16.27;;;12.23;;
20593;SDS011;10455;48.732;10.266;2022-11-09T00:19:16;18.73;;;15.60;;
20593;SDS011;10455;48.732;10.266;2022-11-09T00:24:18;16.63;;;13.87;;
20593;SDS011;10455;48.732;10.266;2022-11-09T00:29:20;15.40;;;12.77;;
20593;SDS011;10455;48.732;10.266;2022-11-09T00:34:23;15.20;;;12.40;;
20593;SDS011;10455;48.732;10.266;2022-11-09T00:39:25;11.37;;;9.90;;
20593;SDS011;10455;48.732;10.266;2022-11-09T00:44:27;11.07;;;9.97;;
20593;SDS011;10455;48.732;10.266;2022-11-09T00:49:30;9.30;;;8.30;;
20593;SDS011;10455;48.732;10.266;2022-11-09T00:54:32;10.77;;;8.17;;
20593;SDS011;10455;48.732;10.266;2022-11-09T00:59:34;10.13;;;8.30;;
20593;SDS011;10455;48.732;10.266;2022-11-09T01:04:37;10.27;;;7.83;;
20593;SDS011;10455;48.732;10.266;2022-11-09T01:09:39;10.87;;;8.37;;
20593;SDS011;10455;48.732;10.266;2022-11-09T01:14:41;8.03;;;7.20;;
20593;SDS011;10455;48.732;10.266;2022-11-09T01:19:44;8.03;;;5.80;;
20593;SDS011;10455;48.732;10.266;2022-11-09T01:24:46;7.50;;;6.07;;
20593;SDS011;10455;48.732;10.266;2022-11-09T01:29:48;6.83;;;5.60;;
20593;SDS011;10455;48.732;10.266;2022-11-09T01:34:51;6.30;;;5.53;;
20593;SDS011;10455;48.732;10.266;2022-11-09T01:39:53;5.70;;;5.10;;
20593;SDS011;10455;48.732;10.266;2022-11-09T01:50:27;6.03;;;5.43;;
20593;SDS011;10455;48.732;10.266;2022-11-09T01:55:33;7.77;;;5.50;;
20593;SDS011;10455;48.732;10.266;2022-11-09T02:00:36;7.90;;;5.80;;
20593;SDS011;10455;48.732;10.266;2022-11-09T02:05:43;8.27;;;6.67;;
20593;SDS011;10455;48.732;10.266;2022-11-09T02:10:46;8.40;;;6.77;;
20593;SDS011;10455;48.732;10.266;2022-11-09T02:15:55;8.37;;;6.97;;
20593;SDS011;10455;48.732;10.266;2022-11-09T02:20:58;7.43;;;6.33;;
20593;SDS011;10455;48.732;10.266;2022-11-09T02:26:02;12.80;;;7.73;;
20593;SDS011;10455;48.732;10.266;2022-11-09T02:31:09;11.80;;;10.20;;
20593;SDS011;10455;48.732;10.266;2022-11-09T02:36:15;10.63;;;9.20;;
20593;SDS011;10455;48.732;10.266;2022-11-09T02:41:17;13.83;;;10.27;;
20593;SDS011;10455;48.732;10.266;2022-11-09T02:46:22;9.70;;;8.40;;
20593;SDS011;10455;48.732;10.266;2022-11-09T02:51:26;14.30;;;10.30;;
20593;SDS011;10455;48.732;10.266;2022-11-09T02:56:29;13.30;;;11.57;;
20593;SDS011;10455;48.732;10.266;2022-11-09T03:01:31;14.53;;;12.30;;
20593;SDS011;10455;48.732;10.266;2022-11-09T03:06:34;15.60;;;11.80;;
20593;SDS011;10455;48.732;10.266;2022-11-09T03:11:36;15.43;;;12.20;;
20593;SDS011;10455;48.732;10.266;2022-11-09T03:16:39;13.60;;;11.47;;
20593;SDS011;10455;48.732;10.266;2022-11-09T03:21:42;11.63;;;10.23;;
20593;SDS011;10455;48.732;10.266;2022-11-09T03:26:44;14.00;;;9.70;;
20593;SDS011;10455;48.732;10.266;2022-11-09T03:31:46;10.13;;;9.00;;
20593;SDS011;10455;48.732;10.266;2022-11-09T03:36:49;9.97;;;8.70;;
20593;SDS011;10455;48.732;10.266;2022-11-09T03:41:51;10.17;;;6.90;;
20593;SDS011;10455;48.732;10.266;2022-11-09T03:46:53;6.77;;;5.23;;
20593;SDS011;10455;48.732;10.266;2022-11-09T03:51:56;6.10;;;5.20;;
20593;SDS011;10455;48.732;10.266;2022-11-09T03:56:58;7.67;;;5.40;;
20593;SDS011;10455;48.732;10.266;2022-11-09T04:02:00;8.13;;;6.40;;
20593;SDS011;10455;48.732;10.266;2022-11-09T04:07:03;8.00;;;7.07;;
20593;SDS011;10455;48.732;10.266;2022-11-09T04:12:05;7.73;;;6.90;;
20593;SDS011;10455;48.732;10.266;2022-11-09T04:17:08;8.20;;;7.40;;
20593;SDS011;10455;48.732;10.266;2022-11-09T04:22:11;8.87;;;7.97;;
20593;SDS011;10455;48.732;10.266;2022-11-09T04:27:13;10.30;;;9.20;;
20593;SDS011;10455;48.732;10.266;2022-11-09T04:32:15;10.30;;;9.37;;
20593;SDS011;10455;48.732;10.266;2022-11-09T04:37:18;12.63;;;10.70;;
20593;SDS011;10455;48.732;10.266;2022-11-09T04:42:20;10.97;;;9.40;;
20593;SDS011;10455;48.732;10.266;2022-11-09T04:47:22;10.93;;;8.70;;
20593;SDS011;10455;48.732;10.266;2022-11-09T04:52:26;9.37;;;8.13;;
20593;SDS011;10455;48.732;10.266;2022-11-09T04:57:28;12.43;;;8.60;;
20593;SDS011;10455;48.732;10.266;2022-11-09T05:02:30;16.67;;;10.67;;
20593;SDS011;10455;48.732;10.266;2022-11-09T05:07:33;12.73;;;9.10;;
20593;SDS011;10455;48.732;10.266;2022-11-09T05:12:36;14.03;;;8.70;;
20593;SDS011;10455;48.732;10.266;2022-11-09T05:17:38;21.03;;;18.73;;
20593;SDS011;10455;48.732;10.266;2022-11-09T05:22:41;13.50;;;10.90;;
20593;SDS011;10455;48.732;10.266;2022-11-09T05:28:01;15.13;;;10.70;;
20593;SDS011;10455;48.732;10.266;2022-11-09T05:33:03;29.10;;;20.17;;
20593;SDS011;10455;48.732;10.266;2022-11-09T05:38:06;35.00;;;27.73;;
20593;SDS011;10455;48.732;10.266;2022-11-09T05:43:08;41.60;;;28.33;;
20593;SDS011;10455;48.732;10.266;2022-11-09T05:48:11;41.03;;;29.73;;
20593;SDS011;10455;48.732;10.266;2022-11-09T05:53:15;40.03;;;30.83;;
20593;SDS011;10455;48.732;10.266;2022-11-09T05:58:17;38.83;;;28.97;;
20593;SDS011;10455;48.732;10.266;2022-11-09T06:03:19;39.07;;;29.23;;
20593;SDS011;10455;48.732;10.266;2022-11-09T06:08:22;43.43;;;29.50;;
20593;SDS011;10455;48.732;10.266;2022-11-09T06:13:24;35.80;;;25.97;;
20593;SDS011;10455;48.732;10.266;2022-11-09T06:18:27;36.97;;;25.07;;
20593;SDS011;10455;48.732;10.266;2022-11-09T06:23:31;41.67;;;30.83;;
20593;SDS011;10455;48.732;10.266;2022-11-09T06:28:33;38.97;;;28.37;;
20593;SDS011;10455;48.732;10.266;2022-11-09T06:33:36;39.07;;;30.77;;
20593;SDS011;10455;48.732;10.266;2022-11-09T06:38:39;40.57;;;30.70;;
20593;SDS011;10455;48.732;10.266;2022-11-09T06:43:41;23.40;;;18.33;;
20593;SDS011;10455;48.732;10.266;2022-11-09T06:48:43;18.77;;;16.77;;
20593;SDS011;10455;48.732;10.266;2022-11-09T06:53:46;23.13;;;18.07;;
20593;SDS011;10455;48.732;10.266;2022-11-09T06:58:48;18.87;;;15.90;;
20593;SDS011;10455;48.732;10.266;2022-11-09T07:03:50;23.17;;;18.13;;
20593;SDS011;10455;48.732;10.266;2022-11-09T07:08:55;28.40;;;21.67;;
20593;SDS011;10455;48.732;10.266;2022-11-09T07:13:57;30.77;;;22.60;;
20593;SDS011;10455;48.732;10.266;2022-11-09T07:19:00;32.90;;;26.27;;
20593;SDS011;10455;48.732;10.266;2022-11-09T07:24:03;35.67;;;27.57;;
20593;SDS011;10455;48.732;10.266;2022-11-09T07:29:06;31.57;;;24.93;;
20593;SDS011;10455;48.732;10.266;2022-11-09T07:34:08;29.80;;;23.57;;
20593;SDS011;10455;48.732;10.266;2022-11-09T07:39:11;32.27;;;24.27;;
20593;SDS011;10455;48.732;10.266;2022-11-09T07:44:13;29.17;;;25.13;;
20593;SDS011;10455;48.732;10.266;2022-11-09T07:49:17;32.83;;;28.23;;
20593;SDS011;10455;48.732;10.266;2022-11-09T07:54:20;36.63;;;30.40;;
20593;SDS011;10455;48.732;10.266;2022-11-09T07:59:24;30.20;;;26.90;;
20593;SDS011;10455;48.732;10.266;2022-11-09T08:04:26;33.93;;;28.60;;
20593;SDS011;10455;48.732;10.266;2022-11-09T08:09:30;34.00;;;27.97;;
20593;SDS011;10455;48.732;10.266;2022-11-09T08:14:32;27.90;;;23.00;;
20593;SDS011;10455;48.732;10.266;2022-11-09T08:19:33;22.23;;;19.80;;
20593;SDS011;10455;48.732;10.266;2022-11-09T08:24:37;21.93;;;15.90;;
20593;SDS011;10455;48.732;10.266;2022-11-09T08:29:39;18.57;;;15.37;;
20593;SDS011;10455;48.732;10.266;2022-11-09T08:34:44;16.40;;;14.70;;
20593;SDS011;10455;48.732;10.266;2022-11-09T08:39:48;15.60;;;14.00;;
20593;SDS011;10455;48.732;10.266;2022-11-09T08:44:50;18.20;;;15.03;;
20593;SDS011;10455;48.732;10.266;2022-11-09T08:49:52;19.93;;;15.53;;
20593;SDS011;10455;48.732;10.266;2022-11-09T08:54:55;15.17;;;13.67;;
20593;SDS011;10455;48.732;10.266;2022-11-09T08:59:57;19.47;;;15.23;;
20593;SDS011;10455;48.732;10.266;2022-11-09T09:04:59;19.57;;;17.40;;
20593;SDS011;10455;48.732;10.266;2022-11-09T09:10:03;19.80;;;13.63;;
20593;SDS011;10455;48.732;10.266;2022-11-09T09:15:06;10.57;;;9.43;;
20593;SDS011;10455;48.732;10.266;2022-11-09T09:20:08;10.20;;;8.00;;
20593;SDS011;10455;48.732;10.266;2022-11-09T09:25:13;8.90;;;8.00;;
20593;SDS011;10455;48.732;10.266;2022-11-09T09:30:14;12.87;;;9.23;;
20593;SDS011;10455;48.732;10.266;2022-11-09T09:35:17;9.03;;;8.13;;
20593;SDS011;10455;48.732;10.266;2022-11-09T09:40:21;8.53;;;7.63;;
20593;SDS011;10455;48.732;10.266;2022-11-09T09:45:27;7.30;;;6.60;;
20593;SDS011;10455;48.732;10.266;2022-11-09T09:50:31;9.77;;;6.93;;
20593;SDS011;10455;48.732;10.266;2022-11-09T09:55:39;10.77;;;7.23;;
20593;SDS011;10455;48.732;10.266;2022-11-09T10:00:42;6.57;;;5.87;;
20593;SDS011;10455;48.732;10.266;2022-11-09T10:05:46;8.40;;;6.57;;
20593;SDS011;10455;48.732;10.266;2022-11-09T10:11:02;5.50;;;5.00;;
20593;SDS011;10455;48.732;10.266;2022-11-09T10:16:13;5.20;;;4.65;;
20593;SDS011;10455;48.732;10.266;2022-11-09T10:21:26;3.83;;;3.35;;
20593;SDS011;10455;48.732;10.266;2022-11-09T10:26:38;3.90;;;3.50;;
20593;SDS011;10455;48.732;10.266;2022-11-09T10:31:44;4.75;;;2.95;;
20593;SDS011;10455;48.732;10.266;2022-11-09T10:36:50;3.35;;;2.42;;
20593;SDS011;10455;48.732;10.266;2022-11-09T10:41:59;2.50;;;2.30;;
20593;SDS011;10455;48.732;10.266;2022-11-09T10:47:02;2.50;;;2.08;;
20593;SDS011;10455;48.732;10.266;2022-11-09T10:52:28;2.88;;;2.10;;
20593;SDS011;10455;48.732;10.266;2022-11-09T10:57:32;2.42;;;1.70;;
20593;SDS011;10455;48.732;10.266;2022-11-09T11:02:41;2.28;;;1.73;;
20593;SDS011;10455;48.732;10.266;2022-11-09T11:07:45;2.05;;;1.77;;
20593;SDS011;10455;48.732;10.266;2022-11-09T11:12:51;3.40;;;1.65;;
20593;SDS011;10455;48.732;10.266;2022-11-09T11:18:19;2.00;;;1.80;;
20593;SDS011;10455;48.732;10.266;2022-11-09T11:23:23;1.73;;;1.48;;
20593;SDS011;10455;48.732;10.266;2022-11-09T11:28:30;1.98;;;1.40;;
20593;SDS011;10455;48.732;10.266;2022-11-09T11:33:36;1.55;;;1.45;;
20593;SDS011;10455;48.732;10.266;2022-11-09T11:38:38;2.28;;;1.40;;
20593;SDS011;10455;48.732;10.266;2022-11-09T11:43:50;1.85;;;1.75;;
20593;SDS011;10455;48.732;10.266;2022-11-09T11:54:33;1.83;;;1.40;;
20593;SDS011;10455;48.732;10.266;2022-11-09T11:59:48;1.55;;;1.45;;
20593;SDS011;10455;48.732;10.266;2022-11-09T12:05:15;2.72;;;1.80;;
20593;SDS011;10455;48.732;10.266;2022-11-09T12:10:45;5.00;;;1.55;;
20593;SDS011;10455;48.732;10.266;2022-11-09T12:15:55;1.60;;;1.50;;
20593;SDS011;10455;48.732;10.266;2022-11-09T12:21:09;1.58;;;1.30;;
20593;SDS011;10455;48.732;10.266;2022-11-09T12:26:17;2.65;;;1.40;;
20593;SDS011;10455;48.732;10.266;2022-11-09T12:31:29;1.50;;;1.40;;
20593;SDS011;10455;48.732;10.266;2022-11-09T12:36:39;1.75;;;1.33;;
20593;SDS011;10455;48.732;10.266;2022-11-09T12:41:46;2.90;;;1.52;;
20593;SDS011;10455;48.732;10.266;2022-11-09T12:46:53;1.80;;;1.30;;
20593;SDS011;10455;48.732;10.266;2022-11-09T12:51:59;2.67;;;1.52;;
20593;SDS011;10455;48.732;10.266;2022-11-09T12:57:03;2.13;;;1.58;;
20593;SDS011;10455;48.732;10.266;2022-11-09T13:02:13;2.00;;;1.50;;
20593;SDS011;10455;48.732;10.266;2022-11-09T13:07:38;1.40;;;1.30;;
20593;SDS011;10455;48.732;10.266;2022-11-09T13:12:48;1.40;;;1.30;;
20593;SDS011;10455;48.732;10.266;2022-11-09T13:17:54;4.50;;;1.45;;
20593;SDS011;10455;48.732;10.266;2022-11-09T13:22:59;2.80;;;1.77;;
20593;SDS011;10455;48.732;10.266;2022-11-09T13:28:15;1.60;;;1.38;;
20593;SDS011;10455;48.732;10.266;2022-11-09T13:33:43;1.75;;;1.50;;
20593;SDS011;10455;48.732;10.266;2022-11-09T13:38:46;1.98;;;1.70;;
20593;SDS011;10455;48.732;10.266;2022-11-09T13:44:27;2.05;;;1.85;;
20593;SDS011;10455;48.732;10.266;2022-11-09T13:49:39;1.70;;;1.60;;
20593;SDS011;10455;48.732;10.266;2022-11-09T13:54:44;1.98;;;1.58;;
20593;SDS011;10455;48.732;10.266;2022-11-09T13:59:53;3.70;;;1.80;;
20593;SDS011;10455;48.732;10.266;2022-11-09T14:04:59;2.60;;;1.50;;
20593;SDS011;10455;48.732;10.266;2022-11-09T14:10:02;1.80;;;1.65;;
20593;SDS011;10455;48.732;10.266;2022-11-09T14:15:15;1.55;;;1.45;;
20593;SDS011;10455;48.732;10.266;2022-11-09T14:20:25;1.70;;;1.58;;
20593;SDS011;10455;48.732;10.266;2022-11-09T14:25:33;2.53;;;1.50;;
20593;SDS011;10455;48.732;10.266;2022-11-09T14:30:42;1.98;;;1.70;;
20593;SDS011;10455;48.732;10.266;2022-11-09T14:35:46;1.83;;;1.58;;
20593;SDS011;10455;48.732;10.266;2022-11-09T14:40:48;2.03;;;1.80;;
20593;SDS011;10455;48.732;10.266;2022-11-09T14:45:53;2.50;;;1.90;;
20593;SDS011;10455;48.732;10.266;2022-11-09T14:50:58;3.10;;;1.90;;
20593;SDS011;10455;48.732;10.266;2022-11-09T14:56:03;2.55;;;1.60;;
20593;SDS011;10455;48.732;10.266;2022-11-09T15:01:08;3.10;;;1.85;;
20593;SDS011;10455;48.732;10.266;2022-11-09T15:06:24;2.20;;;2.00;;
20593;SDS011;10455;48.732;10.266;2022-11-09T15:11:30;4.57;;;1.92;;
20593;SDS011;10455;48.732;10.266;2022-11-09T15:16:33;2.20;;;2.00;;
20593;SDS011;10455;48.732;10.266;2022-11-09T15:21:36;2.50;;;2.30;;
20593;SDS011;10455;48.732;10.266;2022-11-09T15:26:39;2.80;;;2.50;;
20593;SDS011;10455;48.732;10.266;2022-11-09T15:31:55;2.83;;;2.17;;
20593;SDS011;10455;48.732;10.266;2022-11-09T15:36:59;3.17;;;2.15;;
20593;SDS011;10455;48.732;10.266;2022-11-09T15:42:01;2.47;;;2.10;;
20593;SDS011;10455;48.732;10.266;2022-11-09T15:47:03;2.25;;;2.03;;
20593;SDS011;10455;48.732;10.266;2022-11-09T15:52:17;2.38;;;2.17;;
20593;SDS011;10455;48.732;10.266;2022-11-09T15:57:19;3.73;;;2.50;;
20593;SDS011;10455;48.732;10.266;2022-11-09T16:02:21;2.13;;;1.97;;
20593;SDS011;10455;48.732;10.266;2022-11-09T16:07:33;2.67;;;2.40;;
20593;SDS011;10455;48.732;10.266;2022-11-09T16:12:36;2.53;;;2.13;;
20593;SDS011;10455;48.732;10.266;2022-11-09T16:17:38;3.00;;;2.70;;
20593;SDS011;10455;48.732;10.266;2022-11-09T16:22:41;3.97;;;3.57;;
20593;SDS011;10455;48.732;10.266;2022-11-09T16:27:43;4.10;;;3.70;;
20593;SDS011;10455;48.732;10.266;2022-11-09T16:32:45;4.63;;;4.17;;
20593;SDS011;10455;48.732;10.266;2022-11-09T16:37:49;5.80;;;3.40;;
20593;SDS011;10455;48.732;10.266;2022-11-09T16:42:54;4.33;;;3.50;;
20593;SDS011;10455;48.732;10.266;2022-11-09T16:47:56;5.07;;;3.90;;
20593;SDS011;10455;48.732;10.266;2022-11-09T16:52:59;6.83;;;4.83;;
20593;SDS011;10455;48.732;10.266;2022-11-09T16:58:01;7.70;;;7.00;;
20593;SDS011;10455;48.732;10.266;2022-11-09T17:03:03;10.13;;;9.10;;
20593;SDS011;10455;48.732;10.266;2022-11-09T17:08:06;13.30;;;12.10;;
20593;SDS011;10455;48.732;10.266;2022-11-09T17:13:10;15.20;;;13.63;;
20593;SDS011;10455;48.732;10.266;2022-11-09T17:18:13;15.67;;;14.07;;
20593;SDS011;10455;48.732;10.266;2022-11-09T17:23:17;13.63;;;12.37;;
20593;SDS011;10455;48.732;10.266;2022-11-09T17:28:19;13.70;;;12.40;;
20593;SDS011;10455;48.732;10.266;2022-11-09T17:33:22;14.77;;;13.17;;
20593;SDS011;10455;48.732;10.266;2022-11-09T17:38:28;13.47;;;12.17;;
20593;SDS011;10455;48.732;10.266;2022-11-09T17:43:31;18.20;;;14.33;;
20593;SDS011;10455;48.732;10.266;2022-11-09T17:48:35;15.10;;;13.67;;
20593;SDS011;10455;48.732;10.266;2022-11-09T17:53:40;14.90;;;13.47;;
20593;SDS011;10455;48.732;10.266;2022-11-09T17:58:42;19.90;;;17.80;;
20593;SDS011;10455;48.732;10.266;2022-11-09T18:03:45;11.33;;;9.60;;
20593;SDS011;10455;48.732;10.266;2022-11-09T18:08:48;8.80;;;7.93;;
20593;SDS011;10455;48.732;10.266;2022-11-09T18:13:51;11.33;;;9.60;;
20593;SDS011;10455;48.732;10.266;2022-11-09T18:18:57;13.00;;;11.70;;
20593;SDS011;10455;48.732;10.266;2022-11-09T18:24:02;19.20;;;14.97;;
20593;SDS011;10455;48.732;10.266;2022-11-09T18:29:04;38.67;;;30.17;;
20593;SDS011;10455;48.732;10.266;2022-11-09T18:34:06;24.57;;;20.90;;
20593;SDS011;10455;48.732;10.266;2022-11-09T18:39:09;18.83;;;16.83;;
20593;SDS011;10455;48.732;10.266;2022-11-09T18:44:11;11.90;;;10.20;;
20593;SDS011;10455;48.732;10.266;2022-11-09T18:49:13;11.03;;;8.90;;
20593;SDS011;10455;48.732;10.266;2022-11-09T18:54:18;10.57;;;7.67;;
20593;SDS011;10455;48.732;10.266;2022-11-09T18:59:20;8.70;;;7.10;;
20593;SDS011;10455;48.732;10.266;2022-11-09T19:04:22;9.47;;;7.60;;
20593;SDS011;10455;48.732;10.266;2022-11-09T19:09:26;9.47;;;7.30;;
20593;SDS011;10455;48.732;10.266;2022-11-09T19:14:34;8.67;;;5.30;;
20593;SDS011;10455;48.732;10.266;2022-11-09T19:19:39;8.67;;;5.70;;
20593;SDS011;10455;48.732;10.266;2022-11-09T19:24:44;6.47;;;5.87;;
20593;SDS011;10455;48.732;10.266;2022-11-09T19:29:46;7.77;;;6.63;;
20593;SDS011;10455;48.732;10.266;2022-11-09T19:34:48;9.70;;;7.63;;
20593;SDS011;10455;48.732;10.266;2022-11-09T19:39:51;11.13;;;8.13;;
20593;SDS011;10455;48.732;10.266;2022-11-09T19:44:53;10.33;;;7.53;;
20593;SDS011;10455;48.732;10.266;2022-11-09T19:49:56;10.83;;;8.80;;
20593;SDS011;10455;48.732;10.266;2022-11-09T19:55:00;10.33;;;8.83;;
20593;SDS011;10455;48.732;10.266;2022-11-09T20:00:02;10.87;;;9.07;;
20593;SDS011;10455;48.732;10.266;2022-11-09T20:05:05;9.73;;;8.73;;
20593;SDS011;10455;48.732;10.266;2022-11-09T20:10:09;12.07;;;9.83;;
20593;SDS011;10455;48.732;10.266;2022-11-09T20:15:11;12.50;;;11.03;;
20593;SDS011;10455;48.732;10.266;2022-11-09T20:20:13;16.90;;;13.17;;
20593;SDS011;10455;48.732;10.266;2022-11-09T20:25:17;16.87;;;12.87;;
20593;SDS011;10455;48.732;10.266;2022-11-09T20:30:19;17.23;;;13.83;;
20593;SDS011;10455;48.732;10.266;2022-11-09T20:35:20;17.83;;;15.03;;
20593;SDS011;10455;48.732;10.266;2022-11-09T20:40:24;22.00;;;17.00;;
20593;SDS011;10455;48.732;10.266;2022-11-09T20:45:26;24.70;;;21.90;;
20593;SDS011;10455;48.732;10.266;2022-11-09T20:50:28;33.90;;;25.93;;
20593;SDS011;10455;48.732;10.266;2022-11-09T20:55:31;31.70;;;26.13;;
20593;SDS011;10455;48.732;10.266;2022-11-09T21:00:36;31.73;;;27.23;;
20593;SDS011;10455;48.732;10.266;2022-11-09T21:05:38;36.03;;;29.63;;
20593;SDS011;10455;48.732;10.266;2022-11-09T21:10:41;33.97;;;29.60;;
20593;SDS011;10455;48.732;10.266;2022-11-09T21:15:43;36.87;;;31.73;;
20593;SDS011;10455;48.732;10.266;2022-11-09T21:20:45;39.77;;;33.17;;
20593;SDS011;10455;48.732;10.266;2022-11-09T21:25:48;37.50;;;32.60;;
20593;SDS011;10455;48.732;10.266;2022-11-09T21:31:07;36.90;;;30.83;;
20593;SDS011;10455;48.732;10.266;2022-11-09T21:36:10;39.63;;;31.10;;
20593;SDS011;10455;48.732;10.266;2022-11-09T21:41:14;35.47;;;30.43;;
20593;SDS011;10455;48.732;10.266;2022-11-09T21:46:34;38.03;;;30.90;;
20593;SDS011;10455;48.732;10.266;2022-11-09T21:51:38;35.37;;;29.23;;
20593;SDS011;10455;48.732;10.266;2022-11-09T21:56:42;31.00;;;26.17;;
20593;SDS011;10455;48.732;10.266;2022-11-09T22:01:44;32.87;;;27.33;;
20593;SDS011;10455;48.732;10.266;2022-11-09T22:06:46;21.27;;;19.03;;
20593;SDS011;10455;48.732;10.266;2022-11-09T22:11:49;13.10;;;11.73;;
20593;SDS011;10455;48.732;10.266;2022-11-09T22:17:08;10.57;;;9.43;;
20593;SDS011;10455;48.732;10.266;2022-11-09T22:22:11;9.23;;;8.40;;
20593;SDS011;10455;48.732;10.266;2022-11-09T22:27:15;9.17;;;7.80;;
20593;SDS011;10455;48.732;10.266;2022-11-09T22:32:17;8.77;;;7.90;;
20593;SDS011;10455;48.732;10.266;2022-11-09T22:37:19;7.57;;;6.77;;
20593;SDS011;10455;48.732;10.266;2022-11-09T22:42:22;8.33;;;7.30;;
20593;SDS011;10455;48.732;10.266;2022-11-09T22:47:24;7.27;;;6.00;;
20593;SDS011;10455;48.732;10.266;2022-11-09T22:52:26;6.30;;;5.70;;
20593;SDS011;10455;48.732;10.266;2022-11-09T22:57:29;4.70;;;4.37;;
20593;SDS011;10455;48.732;10.266;2022-11-09T23:02:32;6.33;;;5.73;;
20593;SDS011;10455;48.732;10.266;2022-11-09T23:07:33;5.03;;;3.70;;
20593;SDS011;10455;48.732;10.266;2022-11-09T23:12:37;6.70;;;4.13;;
20593;SDS011;10455;48.732;10.266;2022-11-09T23:17:39;6.10;;;4.10;;
20593;SDS011;10455;48.732;10.266;2022-11-09T23:22:58;4.93;;;4.43;;
20593;SDS011;10455;48.732;10.266;2022-11-09T23:28:01;5.57;;;4.20;;
20593;SDS011;10455;48.732;10.266;2022-11-09T23:33:04;5.67;;;3.97;;
20593;SDS011;10455;48.732;10.266;2022-11-09T23:38:06;5.30;;;4.00;;
20593;SDS011;10455;48.732;10.266;2022-11-09T23:43:09;5.70;;;4.83;;
20593;SDS011;10455;48.732;10.266;2022-11-09T23:48:13;4.20;;;3.63;;
20593;SDS011;10455;48.732;10.266;2022-11-09T23:53:16;3.67;;;3.30;;
20593;SDS011;10455;48.732;10.266;2022-11-09T23:58:19;5.23;;;4.30;;
